Time,TemperatureF,DewpointF,PressureIn,WindDirection,WindDirectionDegrees,WindSpeedMPH,WindSpeedGustMPH,Humidity,HourlyPrecipIn,Conditions,Clouds,dailyrainin,SoftwareType,DateUTC
2013-08-01 00:02:00,70.0,57.0,-100.00,WNW,295,3.0,4.0,64,0.00,,,-99.99,,2013-08-01 05:02:00,
2013-08-01 00:13:00,69.0,58.0,-100.00,WNW,290,2.0,4.0,67,0.00,,,-99.99,,2013-08-01 05:13:00,
2013-08-01 00:23:00,69.0,59.0,-100.00,WNW,295,3.0,4.0,70,0.00,,,-99.99,,2013-08-01 05:23:00,
2013-08-01 00:33:00,68.0,59.0,-100.00,NW,310,3.0,4.0,72,0.00,,,-99.99,,2013-08-01 05:33:00,
2013-08-01 00:43:00,68.0,60.0,-100.00,NW,310,4.0,5.0,73,0.00,,,-99.99,,2013-08-01 05:43:00,
2013-08-01 00:53:00,68.0,60.0,-100.00,NW,310,4.0,5.0,73,0.00,,,-99.99,,2013-08-01 05:53:00,
2013-08-01 01:02:00,67.0,58.0,-100.00,WNW,295,1.0,2.0,74,0.00,,,-99.99,,2013-08-01 06:02:00,
2013-08-01 01:12:00,67.0,59.0,-100.00,WNW,300,2.0,3.0,75,0.00,,,-99.99,,2013-08-01 06:12:00,
2013-08-01 01:22:00,67.0,59.0,-100.00,West,275,2.0,3.0,75,0.00,,,-99.99,,2013-08-01 06:22:00,
2013-08-01 01:33:00,67.0,60.0,-100.00,WSW,250,2.0,3.0,76,0.00,,,-99.99,,2013-08-01 06:33:00,
2013-08-01 01:42:00,67.0,60.0,-100.00,West,265,2.0,3.0,77,0.00,,,-99.99,,2013-08-01 06:42:00,
2013-08-01 01:52:00,67.0,60.0,-100.00,West,260,2.0,3.0,78,0.00,,,-99.99,,2013-08-01 06:52:00,
2013-08-01 02:02:00,66.0,60.0,-100.00,WSW,255,1.0,3.0,79,0.00,,,-99.99,,2013-08-01 07:02:00,
2013-08-01 02:12:00,66.0,60.0,-100.00,SSW,210,1.0,2.0,80,0.00,,,-99.99,,2013-08-01 07:12:00,
2013-08-01 02:23:00,66.0,60.0,-100.00,WNW,300,2.0,3.0,80,0.00,,,-99.99,,2013-08-01 07:23:00,
2013-08-01 02:32:00,66.0,60.0,-100.00,WNW,300,2.0,3.0,80,0.00,,,-99.99,,2013-08-01 07:32:00,
2013-08-01 02:43:00,66.0,59.0,-100.00,WNW,285,1.0,3.0,80,0.00,,,-99.99,,2013-08-01 07:43:00,
2013-08-01 03:05:00,64.0,58.0,-100.00,West,270,0.0,2.0,80,0.00,,,-99.99,,2013-08-01 08:05:00,
2013-08-01 03:25:00,65.0,58.0,-100.00,WNW,295,2.0,3.0,80,0.00,,,-99.99,,2013-08-01 08:25:00,
2013-08-01 03:38:00,64.0,58.0,-100.00,WSW,250,3.0,4.0,80,0.00,,,-99.99,,2013-08-01 08:38:00,
2013-08-01 03:59:00,63.0,58.0,-100.00,WSW,245,0.0,1.0,81,0.00,,,-99.99,,2013-08-01 08:59:00,
2013-08-01 04:15:00,64.0,58.0,-100.00,West,260,1.0,1.0,82,0.00,,,-99.99,,2013-08-01 09:15:00,
2013-08-01 04:31:00,61.0,56.0,-100.00,NNE,25,3.0,6.0,82,0.00,,,-99.99,,2013-08-01 09:31:00,
2013-08-01 04:50:00,61.0,56.0,-100.00,East,80,0.0,0.0,84,0.00,,,-99.99,,2013-08-01 09:50:00,
2013-08-01 05:08:00,61.0,56.0,-100.00,East,80,1.0,2.0,84,0.00,,,-99.99,,2013-08-01 10:08:00,
2013-08-01 05:28:00,63.0,58.0,-100.00,South,190,2.0,4.0,84,0.00,,,-99.99,,2013-08-01 10:28:00,
2013-08-01 05:42:00,63.0,58.0,-100.00,South,190,2.0,4.0,84,0.00,,,-99.99,,2013-08-01 10:42:00,
2013-08-01 06:13:00,60.0,56.0,-100.00,SSE,160,1.0,2.0,85,0.00,,,-99.99,,2013-08-01 11:13:00,
2013-08-01 06:33:00,61.0,56.0,-100.00,South,180,0.0,2.0,86,0.00,,,-99.99,,2013-08-01 11:33:00,
2013-08-01 06:48:00,61.0,57.0,-100.00,SW,225,0.0,1.0,86,0.00,,,-99.99,,2013-08-01 11:48:00,
2013-08-01 07:12:00,62.0,58.0,-100.00,WNW,295,2.0,3.0,86,0.00,,,-99.99,,2013-08-01 12:12:00,
2013-08-01 07:20:00,62.0,58.0,-100.00,WNW,295,2.0,3.0,86,0.00,,,-99.99,,2013-08-01 12:20:00,
2013-08-01 07:32:00,63.0,59.0,-100.00,NW,305,1.0,2.0,86,0.00,,,-99.99,,2013-08-01 12:32:00,
2013-08-01 08:42:00,67.0,59.0,-100.00,West,280,3.0,6.0,75,0.00,,,-99.99,,2013-08-01 13:42:00,
2013-08-01 09:00:00,68.0,59.0,-100.00,WNW,285,2.0,6.0,73,0.00,,,-99.99,,2013-08-01 14:00:00,
2013-08-01 10:14:00,75.0,53.0,-100.00,East,95,2.0,3.0,45,0.00,,,-99.99,,2013-08-01 15:14:00,
2013-08-01 10:20:00,76.0,53.0,-100.00,NE,55,1.0,4.0,44,0.00,,,-99.99,,2013-08-01 15:20:00,
2013-08-01 10:29:00,76.0,53.0,-100.00,SSE,155,4.0,6.0,45,0.00,,,-99.99,,2013-08-01 15:29:00,
2013-08-01 10:38:00,76.0,54.0,-100.00,SSE,150,6.0,7.0,45,0.00,,,-99.99,,2013-08-01 15:38:00,
2013-08-01 10:58:00,77.0,54.0,-100.00,SSE,155,6.0,9.0,44,0.00,,,-99.99,,2013-08-01 15:58:00,
2013-08-01 11:07:00,77.0,54.0,-100.00,SSE,160,5.0,10.0,44,0.00,,,-99.99,,2013-08-01 16:07:00,
2013-08-01 11:17:00,77.0,54.0,-100.00,SSE,160,5.0,10.0,44,0.00,,,-99.99,,2013-08-01 16:17:00,
2013-08-01 11:40:00,79.0,55.0,-100.00,SE,145,4.0,7.0,44,0.00,,,-99.99,,2013-08-01 16:40:00,
2013-08-01 11:48:00,80.0,57.0,-100.00,South,175,2.0,6.0,44,0.00,,,-99.99,,2013-08-01 16:48:00,
2013-08-01 11:57:00,80.0,56.0,-100.00,South,190,4.0,9.0,44,0.00,,,-99.99,,2013-08-01 16:57:00,
2013-08-01 12:13:00,80.0,56.0,-100.00,South,190,7.0,9.0,44,0.00,,,-99.99,,2013-08-01 17:13:00,
2013-08-01 12:20:00,81.0,56.0,-100.00,SW,225,6.0,10.0,42,0.00,,,-99.99,,2013-08-01 17:20:00,
2013-08-01 12:43:00,82.0,57.0,-100.00,SW,235,2.0,9.0,42,0.00,,,-99.99,,2013-08-01 17:43:00,
2013-08-01 12:51:00,82.0,56.0,-100.00,WSW,245,9.0,12.0,40,0.00,,,-99.99,,2013-08-01 17:51:00,
2013-08-01 13:18:00,83.0,56.0,-100.00,SSW,200,7.0,12.0,39,0.00,,,-99.99,,2013-08-01 18:18:00,
2013-08-01 13:41:00,83.0,56.0,-100.00,West,265,9.0,14.0,38,0.00,,,-99.99,,2013-08-01 18:41:00,
2013-08-01 15:13:00,87.0,53.0,-100.00,WSW,245,6.0,12.0,31,0.00,,,-99.99,,2013-08-01 20:13:00,
2013-08-01 15:38:00,86.0,53.0,-100.00,SSW,195,9.0,15.0,32,0.00,,,-99.99,,2013-08-01 20:38:00,
2013-08-01 15:48:00,86.0,53.0,-100.00,SSW,195,9.0,15.0,32,0.00,,,-99.99,,2013-08-01 20:48:00,
2013-08-01 16:14:00,88.0,53.0,-100.00,WSW,245,7.0,11.0,30,0.00,,,-99.99,,2013-08-01 21:14:00,
2013-08-01 16:34:00,88.0,52.0,-100.00,WSW,255,4.0,12.0,29,0.00,,,-99.99,,2013-08-01 21:34:00,
2013-08-01 17:16:00,86.0,51.0,-100.00,SW,225,6.0,12.0,30,0.00,,,-99.99,,2013-08-01 22:16:00,
2013-08-01 17:35:00,85.0,51.0,-100.00,SSW,195,9.0,14.0,30,0.00,,,-99.99,,2013-08-01 22:35:00,
2013-08-01 18:08:00,84.0,52.0,-100.00,SSW,205,9.0,13.0,33,0.00,,,-99.99,,2013-08-01 23:08:00,
2013-08-01 18:17:00,84.0,53.0,-100.00,SSW,205,9.0,13.0,34,0.00,,,-99.99,,2013-08-01 23:17:00,
2013-08-01 18:25:00,83.0,53.0,-100.00,SSW,205,8.0,12.0,35,0.00,,,-99.99,,2013-08-01 23:25:00,
2013-08-01 18:33:00,83.0,53.0,-100.00,SSW,205,8.0,12.0,35,0.00,,,-99.99,,2013-08-01 23:33:00,
2013-08-01 18:47:00,83.0,54.0,-100.00,SSW,210,9.0,12.0,36,0.00,,,-99.99,,2013-08-01 23:47:00,
2013-08-01 18:56:00,83.0,54.0,-100.00,SSW,210,9.0,12.0,36,0.00,,,-99.99,,2013-08-01 23:56:00,
2013-08-01 19:08:00,83.0,54.0,-100.00,SW,225,6.0,11.0,36,0.00,,,-99.99,,2013-08-02 00:08:00,
2013-08-01 19:18:00,83.0,54.0,-100.00,SW,230,5.0,14.0,37,0.00,,,-99.99,,2013-08-02 00:18:00,
2013-08-01 19:55:00,81.0,55.0,-100.00,SSW,210,6.0,11.0,40,0.00,,,-99.99,,2013-08-02 00:55:00,
2013-08-01 20:03:00,81.0,56.0,-100.00,SSW,205,6.0,10.0,42,0.00,,,-99.99,,2013-08-02 01:03:00,
2013-08-01 20:16:00,80.0,56.0,-100.00,SSW,210,6.0,9.0,43,0.00,,,-99.99,,2013-08-02 01:16:00,
2013-08-01 20:27:00,80.0,56.0,-100.00,SW,215,6.0,8.0,43,0.00,,,-99.99,,2013-08-02 01:27:00,
2013-08-01 20:46:00,80.0,56.0,-100.00,SSW,210,4.0,6.0,44,0.00,,,-99.99,,2013-08-02 01:46:00,
2013-08-01 20:55:00,79.0,57.0,-100.00,South,190,4.0,6.0,45,0.00,,,-99.99,,2013-08-02 01:55:00,
2013-08-01 21:08:00,78.0,57.0,-100.00,SSE,160,2.0,4.0,47,0.00,,,-99.99,,2013-08-02 02:08:00,
2013-08-01 21:16:00,76.0,57.0,-100.00,SE,125,3.0,4.0,52,0.00,,,-99.99,,2013-08-02 02:16:00,
2013-08-01 21:27:00,74.0,58.0,-100.00,SE,130,3.0,4.0,56,0.00,,,-99.99,,2013-08-02 02:27:00,
2013-08-01 21:34:00,74.0,58.0,-100.00,SE,130,3.0,4.0,56,0.00,,,-99.99,,2013-08-02 02:34:00,
2013-08-01 21:45:00,74.0,59.0,-100.00,South,185,4.0,6.0,58,0.00,,,-99.99,,2013-08-02 02:45:00,
2013-08-01 21:52:00,76.0,59.0,-100.00,SSW,200,4.0,6.0,55,0.00,,,-99.99,,2013-08-02 02:52:00,
2013-08-01 22:09:00,76.0,59.0,-100.00,SSW,205,3.0,5.0,55,0.00,,,-99.99,,2013-08-02 03:09:00,
2013-08-01 22:23:00,76.0,59.0,-100.00,WSW,250,2.0,2.0,55,0.00,,,-99.99,,2013-08-02 03:23:00,
2013-08-01 22:47:00,76.0,59.0,-100.00,WSW,250,2.0,4.0,56,0.00,,,-99.99,,2013-08-02 03:47:00,
2013-08-01 23:02:00,75.0,59.0,-100.00,West,265,1.0,3.0,58,0.00,,,-99.99,,2013-08-02 04:02:00,
2013-08-01 23:12:00,74.0,59.0,-100.00,South,190,0.0,2.0,60,0.00,,,-99.99,,2013-08-02 04:12:00,
2013-08-01 23:22:00,72.0,59.0,-100.00,NE,35,0.0,0.0,63,0.00,,,-99.99,,2013-08-02 04:22:00,
2013-08-01 23:33:00,70.0,59.0,-100.00,NE,35,1.0,1.0,68,0.00,,,-99.99,,2013-08-02 04:33:00,
2013-08-01 23:43:00,69.0,60.0,-100.00,ENE,65,1.0,2.0,72,0.00,,,-99.99,,2013-08-02 04:43:00,
2013-08-01 23:53:00,69.0,60.0,-100.00,East,85,1.0,2.0,74,0.00,,,-99.99,,2013-08-02 04:53:00,